Alexander 3 — SW6137 — position and weather

sailwx.info

Track history (hours):
 
Tides and Currents Weather Stations Pressure Air Temp Water Temp Dewpoint Dewpoint Depression Visibility Wind Speed Wind Dir Waves Ship Positions

Alexander 3

Last reported at 2014-Jul-23 12:34 UTC. Time now 2014-Jul-23 23:40 UTC.
Position N 37°58' E 023°34'.

Length 38 m; draft 5.6 m.

Type: Tug. MMSI: 240733000.

Date/timePositionNaut miles runAvg speedWind from/ knotsBaromVisibWave heightAir tempDewpointWater temp
2014-Jul-23 12:34N 37°58' E 023°34'0 0.0
2014-Jul-23 11:34N 37°58' E 023°34'0 0.0
2014-Jul-23 09:34N 37°58' E 023°34'0 0.0
2014-Jul-23 08:33N 37°58' E 023°34'0 0.0
2014-Jul-23 07:34N 37°58' E 023°34'0 0.0
2014-Jul-23 06:34N 37°58' E 023°34'0 0.0
2014-Jul-23 05:34N 37°58' E 023°34'1 0.1
2014-Jul-22 10:34N 37°57' E 023°35'1 1.1
2014-Jul-22 09:33N 37°57' E 023°37'0 0.0
2014-Jul-22 08:33N 37°57' E 023°37'1 0.8
2014-Jul-22 07:33N 37°57' E 023°36'1 1.4
2014-Jul-22 06:33N 37°56' E 023°37'0 0.0
2014-Jul-22 05:33N 37°56' E 023°37'0 0.0
2014-Jul-22 04:34N 37°56' E 023°37'0 0.0
2014-Jul-22 03:33N 37°56' E 023°37'2 0.1
2014-Jul-21 10:34N 37°57' E 023°36'1 1.3
2014-Jul-21 09:33N 37°56' E 023°36'2 1.7
2014-Jul-21 08:33N 37°58' E 023°37'0 0.1
2014-Jul-21 07:33N 37°57' E 023°37'0 0.0
2014-Jul-21 06:33N 37°57' E 023°37'2 1.5
2014-Jul-21 05:08N 37°56' E 023°35'  
2014-Jul-18 10:34N 37°56' E 023°37'3 3.0
2014-Jul-18 09:33N 37°57' E 023°34'0 0.0
2014-Jul-18 08:32N 37°57' E 023°34'1 0.3
2014-Jul-18 04:33N 37°57' E 023°35'1 0.0
2014-Jul-16 17:33N 37°56' E 023°37'1 1.1
2014-Jul-16 16:33N 37°57' E 023°36'0 0.0
2014-Jul-16 15:33N 37°57' E 023°36'0 0.0
2014-Jul-16 14:33N 37°57' E 023°36'0 0.0
2014-Jul-16 13:33N 37°57' E 023°36'0 0.3
2014-Jul-16 12:33N 37°57' E 023°36'1 0.6
2014-Jul-16 11:33N 37°57' E 023°36'1 1.1
2014-Jul-16 10:33N 37°56' E 023°37'0 0.4
2014-Jul-16 09:34N 37°56' E 023°36'2 1.6
2014-Jul-16 08:33N 37°58' E 023°36'0 0.3
2014-Jul-16 07:33N 37°57' E 023°36'0 0.0
2014-Jul-16 06:33N 37°57' E 023°36'0 0.0
2014-Jul-16 05:33N 37°57' E 023°36'1 0.9
2014-Jul-16 04:34N 37°57' E 023°35'2 1.8
2014-Jul-16 03:33N 37°56' E 023°37'0 0.0
2014-Jul-15 10:33N 37°56' E 023°37'1 1.5
2014-Jul-15 09:33N 37°57' E 023°36'1 0.9
2014-Jul-15 08:34N 37°57' E 023°35'0 0.2
2014-Jul-15 07:34N 37°57' E 023°35'1 0.8
2014-Jul-15 06:33N 37°57' E 023°36'0 0.4
2014-Jul-15 05:33N 37°57' E 023°36'2 1.7
2014-Jul-15 04:33N 37°56' E 023°37'0 0.4
2014-Jul-15 03:34N 37°56' E 023°38'1 0.1
2014-Jul-14 10:34N 37°57' E 023°36'0 0.0
2014-Jul-14 09:34N 37°57' E 023°36'0 0.0
2014-Jul-14 08:33N 37°57' E 023°36'0 0.3
2014-Jul-14 07:33N 37°57' E 023°36'1 1.1
2014-Jul-14 06:33N 37°57' E 023°35'1 0.3
2014-Jul-14 04:25N 37°57' E 023°35'  
Track history (hours):
 
Tides and Currents Weather Stations Pressure Air Temp Water Temp Dewpoint Dewpoint Depression Visibility Wind Speed Wind Dir Waves Ship Positions

Alexander 3

Last reported at 2014-Jul-23 12:34 UTC. Time now 2014-Jul-23 23:40 UTC.
Position N 37°58' E 023°34'.

Length 38 m; draft 5.6 m.

Type: Tug. MMSI: 240733000.

Date/timePositionNaut miles runAvg speedWind from/ knotsBaromVisibWave heightAir tempDewpointWater temp
2014-Jul-23 12:34N 37°58' E 023°34'0 0.0
2014-Jul-23 11:34N 37°58' E 023°34'0 0.0
2014-Jul-23 09:34N 37°58' E 023°34'0 0.0
2014-Jul-23 08:33N 37°58' E 023°34'0 0.0
2014-Jul-23 07:34N 37°58' E 023°34'0 0.0
2014-Jul-23 06:34N 37°58' E 023°34'0 0.0
2014-Jul-23 05:34N 37°58' E 023°34'1 0.1
2014-Jul-22 10:34N 37°57' E 023°35'1 1.1
2014-Jul-22 09:33N 37°57' E 023°37'0 0.0
2014-Jul-22 08:33N 37°57' E 023°37'1 0.8
2014-Jul-22 07:33N 37°57' E 023°36'1 1.4
2014-Jul-22 06:33N 37°56' E 023°37'0 0.0
2014-Jul-22 05:33N 37°56' E 023°37'0 0.0
2014-Jul-22 04:34N 37°56' E 023°37'0 0.0
2014-Jul-22 03:33N 37°56' E 023°37'2 0.1
2014-Jul-21 10:34N 37°57' E 023°36'1 1.3
2014-Jul-21 09:33N 37°56' E 023°36'2 1.7
2014-Jul-21 08:33N 37°58' E 023°37'0 0.1
2014-Jul-21 07:33N 37°57' E 023°37'0 0.0
2014-Jul-21 06:33N 37°57' E 023°37'2 1.5
2014-Jul-21 05:08N 37°56' E 023°35'  
2014-Jul-18 10:34N 37°56' E 023°37'3 3.0
2014-Jul-18 09:33N 37°57' E 023°34'0 0.0
2014-Jul-18 08:32N 37°57' E 023°34'1 0.3
2014-Jul-18 04:33N 37°57' E 023°35'1 0.0
2014-Jul-16 17:33N 37°56' E 023°37'1 1.1
2014-Jul-16 16:33N 37°57' E 023°36'0 0.0
2014-Jul-16 15:33N 37°57' E 023°36'0 0.0
2014-Jul-16 14:33N 37°57' E 023°36'0 0.0
2014-Jul-16 13:33N 37°57' E 023°36'0 0.3
2014-Jul-16 12:33N 37°57' E 023°36'1 0.6
2014-Jul-16 11:33N 37°57' E 023°36'1 1.1
2014-Jul-16 10:33N 37°56' E 023°37'0 0.4
2014-Jul-16 09:34N 37°56' E 023°36'2 1.6
2014-Jul-16 08:33N 37°58' E 023°36'0 0.3
2014-Jul-16 07:33N 37°57' E 023°36'0 0.0
2014-Jul-16 06:33N 37°57' E 023°36'0 0.0
2014-Jul-16 05:33N 37°57' E 023°36'1 0.9
2014-Jul-16 04:34N 37°57' E 023°35'2 1.8
2014-Jul-16 03:33N 37°56' E 023°37'0 0.0
2014-Jul-15 10:33N 37°56' E 023°37'1 1.5
2014-Jul-15 09:33N 37°57' E 023°36'1 0.9
2014-Jul-15 08:34N 37°57' E 023°35'0 0.2
2014-Jul-15 07:34N 37°57' E 023°35'1 0.8
2014-Jul-15 06:33N 37°57' E 023°36'0 0.4
2014-Jul-15 05:33N 37°57' E 023°36'2 1.7
2014-Jul-15 04:33N 37°56' E 023°37'0 0.4
2014-Jul-15 03:34N 37°56' E 023°38'1 0.1
2014-Jul-14 10:34N 37°57' E 023°36'0 0.0
2014-Jul-14 09:34N 37°57' E 023°36'0 0.0
2014-Jul-14 08:33N 37°57' E 023°36'0 0.3
2014-Jul-14 07:33N 37°57' E 023°36'1 1.1
2014-Jul-14 06:33N 37°57' E 023°35'1 0.3
2014-Jul-14 04:25N 37°57' E 023°35'  

Dump ship's entire track history